Time;durP1;ratioP1;P1;durP2;ratioP2;P2;SDS_P1;SDS_P2;PMS_P1;PMS_P2;Temp;Humidity;BMP_temperature;BMP_pressure;BME280_temperature;BME280_humidity;BME280_pressure;Samples;Min_cycle;Max_cycle;Signal;HPM_P1;HPM_P2
2023/05/01 00:01:57;;;;;;;12.23;6.97;;;7.60;99.90;;;;;;4209052;28;20483;-77
2023/05/01 00:04:00;;;;;;;12.83;6.97;;;7.50;99.90;;;;;;4209406;28;20566;-77
2023/05/01 00:06:04;;;;;;;13.13;6.90;;;7.50;99.90;;;;;;4216233;28;20461;-77
2023/05/01 00:08:06;;;;;;;13.57;6.87;;;7.50;99.90;;;;;;4213063;28;20462;-77
2023/05/01 00:10:08;;;;;;;16.40;6.60;;;7.40;99.90;;;;;;4213518;28;20471;-77
2023/05/01 00:12:11;;;;;;;16.57;7.20;;;7.40;99.90;;;;;;4211462;28;20470;-77
2023/05/01 00:14:13;;;;;;;13.47;6.70;;;7.40;99.90;;;;;;4208936;28;20434;-77
2023/05/01 00:16:16;;;;;;;16.33;8.43;;;7.30;99.90;;;;;;4201219;28;20552;-76
2023/05/01 00:18:18;;;;;;;17.80;7.97;;;7.30;99.90;;;;;;4215455;28;20494;-77
2023/05/01 00:20:22;;;;;;;15.03;7.50;;;7.30;99.90;;;;;;4213418;28;20506;-76
2023/05/01 00:22:24;;;;;;;13.20;7.07;;;7.20;99.90;;;;;;4202963;28;21301;-77
2023/05/01 00:24:26;;;;;;;14.23;6.50;;;7.20;99.90;;;;;;4209685;28;20470;-77
2023/05/01 00:26:30;;;;;;;11.63;6.10;;;7.20;99.90;;;;;;4207872;28;20473;-77
2023/05/01 00:28:32;;;;;;;10.10;5.27;;;7.10;99.90;;;;;;4206460;28;20450;-77
2023/05/01 00:30:34;;;;;;;8.70;4.63;;;7.10;99.90;;;;;;4203985;28;20550;-77
2023/05/01 00:32:35;;;;;;;7.83;4.30;;;7.10;99.90;;;;;;4210542;28;20558;-77
2023/05/01 00:34:37;;;;;;;6.90;4.00;;;7.00;99.90;;;;;;4210351;28;20459;-76
2023/05/01 00:36:41;;;;;;;10.63;4.17;;;7.00;99.90;;;;;;4207610;28;20467;-77
2023/05/01 00:38:43;;;;;;;6.50;3.50;;;7.00;99.90;;;;;;4214926;28;20469;-76
2023/05/01 00:40:45;;;;;;;6.63;3.60;;;7.00;99.90;;;;;;4209575;28;20517;-76
2023/05/01 00:42:47;;;;;;;6.33;3.70;;;6.90;99.90;;;;;;4207719;28;20506;-76
2023/05/01 00:44:49;;;;;;;6.10;3.37;;;6.90;99.90;;;;;;4211053;28;20478;-76
2023/05/01 00:46:51;;;;;;;6.17;3.83;;;6.90;99.90;;;;;;4210430;28;20453;-76
2023/05/01 00:48:53;;;;;;;8.27;4.00;;;6.90;99.90;;;;;;4213249;28;20481;-77
2023/05/01 00:50:56;;;;;;;7.17;3.47;;;6.80;99.90;;;;;;4216176;28;20459;-76
2023/05/01 00:52:59;;;;;;;7.93;3.83;;;6.80;99.90;;;;;;4209417;28;20574;-76
2023/05/01 00:55:01;;;;;;;6.43;3.57;;;6.80;99.90;;;;;;4212358;28;20557;-76
2023/05/01 00:57:03;;;;;;;6.20;3.30;;;6.80;99.90;;;;;;4211356;28;20569;-76
2023/05/01 00:59:06;;;;;;;7.07;3.40;;;6.80;99.90;;;;;;4212236;28;20510;-76
2023/05/01 01:01:08;;;;;;;6.07;3.57;;;6.70;99.90;;;;;;4209296;28;21055;-76
2023/05/01 01:03:10;;;;;;;7.57;3.60;;;6.70;99.90;;;;;;4218528;28;20501;-76
2023/05/01 01:05:12;;;;;;;6.10;3.07;;;6.70;99.90;;;;;;4214514;28;20813;-76
2023/05/01 01:07:23;;;;;;;5.63;3.20;;;6.70;99.90;;;;;;4221324;28;20486;-77
2023/05/01 01:09:42;;;;;;;7.37;3.47;;;6.70;99.90;;;;;;4220886;28;20529;-77
2023/05/01 01:11:53;;;;;;;6.13;3.67;;;6.60;99.90;;;;;;4218086;28;20459;-77
2023/05/01 01:14:00;;;;;;;8.13;3.40;;;6.60;99.90;;;;;;4214807;28;20453;-76
2023/05/01 01:16:13;;;;;;;10.47;3.93;;;6.60;99.90;;;;;;4219784;28;20505;-76
2023/05/01 01:18:20;;;;;;;6.93;3.60;;;6.50;99.90;;;;;;4215064;28;20907;-76
2023/05/01 01:20:32;;;;;;;7.63;3.80;;;6.50;99.90;;;;;;4209729;28;20973;-76
2023/05/01 01:22:36;;;;;;;8.33;3.77;;;6.50;99.90;;;;;;4212330;28;20505;-76
2023/05/01 01:25:00;;;;;;;6.73;3.40;;;6.50;99.90;;;;;;4216924;28;20464;-76
2023/05/01 01:27:35;;;;;;;7.63;3.67;;;6.50;99.90;;;;;;4214397;28;20462;-76
2023/05/01 01:30:05;;;;;;;6.27;3.50;;;6.40;99.90;;;;;;4218020;28;20548;-76
2023/05/01 01:32:25;;;;;;;6.87;3.30;;;6.40;99.90;;;;;;4210295;28;20477;-76
2023/05/01 01:34:34;;;;;;;6.00;3.40;;;6.40;99.90;;;;;;4211666;28;21030;-76
2023/05/01 01:36:42;;;;;;;8.63;3.50;;;6.30;99.90;;;;;;4208670;28;20461;-77
2023/05/01 01:38:48;;;;;;;6.30;3.33;;;6.30;99.90;;;;;;4213998;28;20492;-76
2023/05/01 01:40:56;;;;;;;6.53;3.50;;;6.30;99.90;;;;;;4206401;28;20462;-76
2023/05/01 01:43:03;;;;;;;7.10;3.40;;;6.20;99.90;;;;;;4221373;28;20512;-77
2023/05/01 01:45:11;;;;;;;8.40;3.80;;;6.20;99.90;;;;;;4215382;28;20473;-77
2023/05/01 01:47:15;;;;;;;5.93;3.20;;;6.20;99.90;;;;;;4214939;28;20459;-76
2023/05/01 01:49:21;;;;;;;6.07;3.60;;;6.20;99.90;;;;;;4209000;28;20449;-77
2023/05/01 01:51:26;;;;;;;7.93;3.77;;;6.20;99.90;;;;;;4218373;28;20460;-76
2023/05/01 01:53:31;;;;;;;8.60;3.90;;;6.10;99.90;;;;;;4208767;28;20932;-76
2023/05/01 01:55:35;;;;;;;8.43;4.10;;;6.10;99.90;;;;;;4210989;28;20506;-76
2023/05/01 01:57:39;;;;;;;9.07;4.03;;;6.10;99.90;;;;;;4210514;28;20528;-77
2023/05/01 01:59:42;;;;;;;7.17;3.50;;;6.10;99.90;;;;;;4210651;28;20462;-76
2023/05/01 02:01:45;;;;;;;8.10;3.83;;;6.00;99.90;;;;;;4214385;28;20473;-76
2023/05/01 02:03:48;;;;;;;6.27;3.57;;;6.00;99.90;;;;;;4214423;28;21001;-76
2023/05/01 02:05:52;;;;;;;7.17;3.80;;;6.00;99.90;;;;;;4210834;28;20460;-77
2023/05/01 02:07:57;;;;;;;6.57;3.47;;;6.00;99.90;;;;;;4202334;28;20931;-76
2023/05/01 02:10:01;;;;;;;8.83;3.77;;;5.90;99.90;;;;;;4208377;28;20479;-76
2023/05/01 02:12:05;;;;;;;6.10;3.20;;;5.90;99.90;;;;;;4210642;28;20563;-77
2023/05/01 02:14:08;;;;;;;7.87;3.50;;;5.90;99.90;;;;;;4209715;28;20488;-76
2023/05/01 02:16:13;;;;;;;9.63;4.00;;;5.90;99.90;;;;;;4210608;28;20460;-77
2023/05/01 02:18:16;;;;;;;5.93;3.33;;;5.80;99.90;;;;;;4213191;28;20461;-76
2023/05/01 02:20:18;;;;;;;7.33;3.53;;;5.80;99.90;;;;;;4208613;28;20462;-76
2023/05/01 02:22:21;;;;;;;6.60;3.60;;;5.80;99.90;;;;;;4204384;28;20489;-77
2023/05/01 02:24:28;;;;;;;8.63;4.57;;;5.80;99.90;;;;;;4208129;28;20477;-77
2023/05/01 02:26:31;;;;;;;6.97;3.50;;;5.70;99.90;;;;;;4208836;28;20493;-77
2023/05/01 02:28:34;;;;;;;8.67;3.90;;;5.70;99.90;;;;;;4205140;28;20474;-76
2023/05/01 02:30:37;;;;;;;5.37;3.17;;;5.70;99.90;;;;;;4208621;28;20497;-76
2023/05/01 02:32:40;;;;;;;6.63;3.67;;;5.70;99.90;;;;;;4208569;28;20483;-76
2023/05/01 02:34:42;;;;;;;5.37;3.50;;;5.60;99.90;;;;;;4209542;28;20453;-76
2023/05/01 02:36:43;;;;;;;7.53;3.53;;;5.60;99.90;;;;;;4210132;28;20514;-76
2023/05/01 02:38:49;;;;;;;4.77;3.33;;;5.60;99.90;;;;;;4208419;28;20555;-77
2023/05/01 02:40:56;;;;;;;6.20;3.30;;;5.60;99.90;;;;;;4203513;28;21487;-76
2023/05/01 02:43:00;;;;;;;6.27;3.50;;;5.60;99.90;;;;;;4205468;28;20595;-76
2023/05/01 02:45:05;;;;;;;5.73;3.60;;;5.60;99.90;;;;;;4204862;28;20496;-76
2023/05/01 02:47:09;;;;;;;7.77;3.37;;;5.50;99.90;;;;;;4209379;28;20539;-76
2023/05/01 02:49:11;;;;;;;9.03;3.53;;;5.50;99.90;;;;;;4206946;28;20465;-76
2023/05/01 02:51:14;;;;;;;8.70;3.60;;;5.50;99.90;;;;;;4207099;28;20454;-76
2023/05/01 02:53:17;;;;;;;7.73;3.60;;;5.50;99.90;;;;;;4210670;28;20910;-76
2023/05/01 02:55:20;;;;;;;9.33;3.83;;;5.50;99.90;;;;;;4210573;28;20455;-76
2023/05/01 02:57:23;;;;;;;7.43;4.03;;;5.50;99.90;;;;;;4206135;28;20845;-76
2023/05/01 02:59:25;;;;;;;9.80;3.70;;;5.40;99.90;;;;;;4206672;28;20495;-76
2023/05/01 03:01:28;;;;;;;7.97;3.83;;;5.40;99.90;;;;;;4205624;28;20488;-76
2023/05/01 03:03:30;;;;;;;7.47;3.80;;;5.40;99.90;;;;;;4207625;28;20450;-76
2023/05/01 03:05:32;;;;;;;9.90;3.83;;;5.30;99.90;;;;;;4210244;28;20473;-76
2023/05/01 03:07:34;;;;;;;10.77;4.10;;;5.40;99.90;;;;;;4206897;28;20454;-76
2023/05/01 03:09:38;;;;;;;9.47;4.33;;;5.30;99.90;;;;;;4209666;28;20465;-76
2023/05/01 03:11:40;;;;;;;7.33;3.53;;;5.30;99.90;;;;;;4202198;28;20463;-76
2023/05/01 03:13:43;;;;;;;8.10;4.20;;;5.30;99.90;;;;;;4211337;28;20490;-76
2023/05/01 03:15:45;;;;;;;10.57;4.07;;;5.30;99.90;;;;;;4212910;28;20560;-76
2023/05/01 03:17:47;;;;;;;6.53;3.73;;;5.30;99.90;;;;;;4214026;28;20521;-76
2023/05/01 03:19:50;;;;;;;9.57;4.30;;;5.30;99.90;;;;;;4207825;28;20547;-75
2023/05/01 03:21:52;;;;;;;9.80;4.27;;;5.20;99.90;;;;;;4205336;28;20526;-76
2023/05/01 03:23:54;;;;;;;9.73;3.70;;;5.20;99.90;;;;;;4213752;28;20542;-75
2023/05/01 03:25:56;;;;;;;7.73;4.00;;;5.20;99.90;;;;;;4208626;28;21052;-76
2023/05/01 03:27:58;;;;;;;6.30;3.73;;;5.20;99.90;;;;;;4213224;28;20455;-76
2023/05/01 03:30:02;;;;;;;7.67;4.30;;;5.20;99.90;;;;;;4202560;28;21111;-76
2023/05/01 03:32:05;;;;;;;8.07;4.40;;;5.20;99.90;;;;;;4207855;28;20463;-76
2023/05/01 03:34:07;;;;;;;7.67;4.10;;;5.10;99.90;;;;;;4205087;28;20468;-76
2023/05/01 03:36:10;;;;;;;9.23;3.83;;;5.10;99.90;;;;;;4203591;28;20556;-76
2023/05/01 03:38:12;;;;;;;7.03;3.70;;;5.10;99.90;;;;;;4207451;28;20484;-76
2023/05/01 03:40:14;;;;;;;10.27;5.10;;;5.10;99.90;;;;;;4209778;28;20893;-76
2023/05/01 03:42:16;;;;;;;8.43;4.47;;;5.10;99.90;;;;;;4215276;28;20492;-76
2023/05/01 03:44:18;;;;;;;10.13;4.13;;;5.10;99.90;;;;;;4206444;28;20496;-76
2023/05/01 03:46:21;;;;;;;13.83;4.43;;;5.00;99.90;;;;;;4208152;28;20507;-76
2023/05/01 03:48:23;;;;;;;10.40;4.70;;;5.00;99.90;;;;;;4209408;28;20482;-76
2023/05/01 03:50:25;;;;;;;11.77;5.00;;;5.00;99.90;;;;;;4208912;28;20499;-76
2023/05/01 03:52:27;;;;;;;8.93;4.33;;;5.00;99.90;;;;;;4213773;28;20479;-76
2023/05/01 03:54:29;;;;;;;7.87;4.37;;;5.00;99.90;;;;;;4206855;28;20455;-76
2023/05/01 03:56:34;;;;;;;8.90;4.40;;;5.00;99.90;;;;;;4206484;28;20451;-76
2023/05/01 03:58:37;;;;;;;8.13;4.50;;;5.00;99.90;;;;;;4202577;28;20464;-76
2023/05/01 04:00:40;;;;;;;8.73;4.73;;;4.90;99.90;;;;;;4206824;28;20459;-76
2023/05/01 04:02:43;;;;;;;7.90;4.53;;;5.00;99.90;;;;;;4208152;28;20495;-76
2023/05/01 04:04:45;;;;;;;9.90;4.57;;;4.90;99.90;;;;;;4206231;28;20902;-76
2023/05/01 04:06:48;;;;;;;10.50;4.60;;;4.90;99.90;;;;;;4206671;28;20460;-76
2023/05/01 04:08:50;;;;;;;8.23;4.70;;;4.90;99.90;;;;;;4202814;28;20560;-76
2023/05/01 04:10:52;;;;;;;10.80;5.07;;;4.90;99.90;;;;;;4207826;28;21137;-76
2023/05/01 04:12:54;;;;;;;9.27;5.27;;;4.90;99.90;;;;;;4202608;28;20545;-76
2023/05/01 04:14:56;;;;;;;11.47;5.53;;;4.90;99.90;;;;;;4212039;28;20984;-76
2023/05/01 04:16:58;;;;;;;9.83;5.17;;;4.90;99.90;;;;;;4211328;28;20499;-77
2023/05/01 04:19:01;;;;;;;9.80;5.10;;;4.90;99.90;;;;;;4212383;28;20884;-76
2023/05/01 04:21:03;;;;;;;10.40;5.00;;;4.90;99.90;;;;;;4206897;28;20478;-76
2023/05/01 04:23:05;;;;;;;11.10;5.03;;;4.90;99.90;;;;;;4210477;28;20951;-76
2023/05/01 04:25:08;;;;;;;10.90;5.27;;;4.90;99.90;;;;;;4210142;28;20455;-76
2023/05/01 04:27:10;;;;;;;8.30;4.80;;;4.90;99.90;;;;;;4212278;28;20473;-76
2023/05/01 04:29:12;;;;;;;10.03;5.37;;;4.90;99.90;;;;;;4212639;28;20970;-76
2023/05/01 04:31:14;;;;;;;9.47;5.07;;;4.90;99.90;;;;;;4211001;28;20487;-76
2023/05/01 04:33:16;;;;;;;10.80;5.37;;;4.90;99.90;;;;;;4211068;28;21001;-76
2023/05/01 04:35:19;;;;;;;9.77;5.13;;;4.90;99.90;;;;;;4212847;28;20459;-76
2023/05/01 04:37:21;;;;;;;9.70;5.40;;;4.90;99.90;;;;;;4211886;28;20487;-76
2023/05/01 04:39:23;;;;;;;8.90;5.10;;;4.90;99.90;;;;;;4209665;28;20455;-76
2023/05/01 04:41:25;;;;;;;10.67;5.37;;;4.90;99.90;;;;;;4209984;28;20830;-76
2023/05/01 04:43:27;;;;;;;10.80;5.40;;;4.90;99.90;;;;;;4210438;28;20484;-76
2023/05/01 04:45:29;;;;;;;11.87;5.70;;;4.90;99.90;;;;;;4204492;28;20460;-75
2023/05/01 04:47:30;;;;;;;13.13;6.70;;;4.90;99.90;;;;;;4210423;28;20552;-76
2023/05/01 04:49:32;;;;;;;16.13;6.93;;;5.00;99.90;;;;;;4208766;28;20487;-75
2023/05/01 04:51:36;;;;;;;14.40;6.20;;;5.00;99.90;;;;;;4213788;28;20484;-76
2023/05/01 04:53:37;;;;;;;12.97;7.20;;;5.00;99.90;;;;;;4206208;28;20457;-76
2023/05/01 04:55:39;;;;;;;14.93;7.00;;;5.00;99.90;;;;;;4207356;28;20473;-76
2023/05/01 04:57:41;;;;;;;14.03;6.80;;;5.10;99.90;;;;;;4212770;28;20456;-76
2023/05/01 04:59:43;;;;;;;13.23;6.50;;;5.10;99.90;;;;;;4215561;28;21006;-76
2023/05/01 05:01:45;;;;;;;11.90;6.97;;;5.10;99.90;;;;;;4215056;28;20514;-76
2023/05/01 05:03:47;;;;;;;15.87;7.53;;;5.10;99.90;;;;;;4206132;28;20456;-76
2023/05/01 05:05:49;;;;;;;17.77;8.10;;;5.10;99.90;;;;;;4208512;28;20554;-76
2023/05/01 05:07:52;;;;;;;15.30;8.67;;;5.20;99.90;;;;;;4212643;28;20992;-76
2023/05/01 05:09:54;;;;;;;18.23;9.13;;;5.20;99.90;;;;;;4211695;28;20508;-76
2023/05/01 05:11:56;;;;;;;20.63;9.97;;;5.20;99.90;;;;;;4212933;28;20484;-76
2023/05/01 05:13:58;;;;;;;21.70;10.57;;;5.30;99.90;;;;;;4210698;28;20560;-76
2023/05/01 05:16:00;;;;;;;19.73;10.20;;;5.40;99.90;;;;;;4212932;28;20474;-76
2023/05/01 05:18:02;;;;;;;21.23;9.77;;;5.40;99.90;;;;;;4212522;28;20465;-76
2023/05/01 05:20:05;;;;;;;20.40;10.27;;;5.40;99.90;;;;;;4209454;28;20467;-76
2023/05/01 05:22:07;;;;;;;19.80;10.33;;;5.50;99.90;;;;;;4202428;28;20581;-75
2023/05/01 05:24:10;;;;;;;19.60;9.77;;;5.50;99.90;;;;;;4211132;28;20466;-76
2023/05/01 05:26:12;;;;;;;17.83;9.70;;;5.60;99.90;;;;;;4216318;28;20457;-76
2023/05/01 05:28:14;;;;;;;19.53;9.73;;;5.60;99.90;;;;;;4206117;28;20493;-76
2023/05/01 05:30:16;;;;;;;17.30;9.20;;;5.70;99.90;;;;;;4207634;28;20480;-76
2023/05/01 05:32:18;;;;;;;18.77;9.80;;;5.70;99.90;;;;;;4209826;28;20488;-76
2023/05/01 05:34:22;;;;;;;15.87;7.90;;;5.80;99.90;;;;;;4211425;28;20547;-76
2023/05/01 05:36:26;;;;;;;17.43;9.40;;;5.80;99.90;;;;;;4212952;28;21521;-76
2023/05/01 05:38:28;;;;;;;15.97;9.10;;;5.90;99.90;;;;;;4217083;28;21304;-76
2023/05/01 05:40:31;;;;;;;20.23;9.73;;;5.90;99.90;;;;;;4214545;28;20457;-76
2023/05/01 05:42:33;;;;;;;15.80;8.93;;;6.00;99.90;;;;;;4210063;28;20490;-76
2023/05/01 05:44:35;;;;;;;17.97;9.97;;;6.00;99.90;;;;;;4213125;28;20462;-76
2023/05/01 05:46:37;;;;;;;17.70;9.20;;;6.10;99.90;;;;;;4210094;28;20948;-76
2023/05/01 05:48:39;;;;;;;19.50;9.40;;;6.10;99.90;;;;;;4216725;28;20887;-76
2023/05/01 05:50:41;;;;;;;18.63;8.93;;;6.20;99.90;;;;;;4206350;28;20906;-76
2023/05/01 05:52:43;;;;;;;16.20;8.77;;;6.20;99.90;;;;;;4215260;28;20563;-76
2023/05/01 05:54:45;;;;;;;18.20;9.07;;;6.20;99.90;;;;;;4213937;28;20505;-76
2023/05/01 05:56:48;;;;;;;18.43;9.10;;;6.20;99.90;;;;;;4208318;28;20469;-76
2023/05/01 05:58:50;;;;;;;18.43;8.57;;;6.30;99.90;;;;;;4209734;28;20558;-75
2023/05/01 06:00:54;;;;;;;17.30;9.30;;;6.30;99.90;;;;;;4213124;28;20554;-76
2023/05/01 06:02:56;;;;;;;16.43;9.43;;;6.30;99.90;;;;;;4207734;28;20852;-75
2023/05/01 06:04:58;;;;;;;15.93;8.90;;;6.40;99.90;;;;;;4210293;28;20825;-76
2023/05/01 06:07:00;;;;;;;16.27;7.97;;;6.40;99.90;;;;;;4211074;28;20848;-76
2023/05/01 06:09:02;;;;;;;16.13;8.77;;;6.50;99.90;;;;;;4214827;28;20468;-76
2023/05/01 06:11:05;;;;;;;15.27;7.93;;;6.50;99.90;;;;;;4212572;28;20470;-76
2023/05/01 06:13:09;;;;;;;16.03;8.90;;;6.50;99.90;;;;;;4216905;28;20492;-77
2023/05/01 06:15:14;;;;;;;13.43;8.30;;;6.60;99.90;;;;;;4201741;28;20455;-76
2023/05/01 06:17:16;;;;;;;17.63;8.23;;;6.60;99.90;;;;;;4207523;28;20505;-76
2023/05/01 06:19:18;;;;;;;18.73;9.40;;;6.60;99.90;;;;;;4211710;28;20985;-76
2023/05/01 06:21:20;;;;;;;16.47;8.70;;;6.60;99.90;;;;;;4215277;28;20511;-76
2023/05/01 06:23:22;;;;;;;16.77;8.73;;;6.70;99.90;;;;;;4213011;28;20536;-76
2023/05/01 06:25:24;;;;;;;14.83;8.57;;;6.70;99.90;;;;;;4216869;28;20458;-76
2023/05/01 06:27:26;;;;;;;14.73;8.17;;;6.80;99.90;;;;;;4212198;28;20474;-76
2023/05/01 06:29:29;;;;;;;20.07;9.47;;;7.00;99.90;;;;;;4211750;28;20460;-76
2023/05/01 06:31:31;;;;;;;16.00;8.83;;;6.80;99.90;;;;;;4212888;28;20932;-76
2023/05/01 06:33:33;;;;;;;13.33;8.53;;;6.80;99.90;;;;;;4213774;28;21228;-76
2023/05/01 06:35:35;;;;;;;14.63;8.10;;;6.90;99.90;;;;;;4208039;28;20978;-76
2023/05/01 06:37:37;;;;;;;14.57;8.00;;;6.90;99.90;;;;;;4207848;28;20543;-76
2023/05/01 06:39:39;;;;;;;16.93;8.20;;;7.00;99.90;;;;;;4210074;28;20467;-76
2023/05/01 06:41:41;;;;;;;14.33;7.90;;;7.00;99.90;;;;;;4209093;28;20469;-76
2023/05/01 06:43:43;;;;;;;14.77;7.93;;;7.00;99.90;;;;;;4209294;28;20487;-76
2023/05/01 06:45:46;;;;;;;16.20;8.33;;;7.10;99.90;;;;;;4210911;28;20466;-76
2023/05/01 06:47:48;;;;;;;13.10;7.83;;;7.10;99.90;;;;;;4207838;28;20470;-76
2023/05/01 06:49:50;;;;;;;14.27;7.57;;;7.10;99.90;;;;;;4207744;28;20570;-76
2023/05/01 06:51:52;;;;;;;19.37;10.10;;;7.20;99.90;;;;;;4215159;28;20485;-76
2023/05/01 06:53:54;;;;;;;13.23;8.00;;;7.20;99.90;;;;;;4219992;28;20538;-76
2023/05/01 06:55:56;;;;;;;16.67;8.70;;;7.40;99.90;;;;;;4208027;28;20462;-76
2023/05/01 06:57:58;;;;;;;15.73;7.70;;;7.40;99.90;;;;;;4205411;28;20813;-77
2023/05/01 07:00:00;;;;;;;17.63;8.97;;;7.40;99.90;;;;;;4209055;28;20463;-77
2023/05/01 07:02:03;;;;;;;13.97;7.93;;;7.50;99.90;;;;;;4217643;28;20484;-76
2023/05/01 07:04:06;;;;;;;14.33;7.93;;;7.50;99.90;;;;;;4213882;28;21014;-76
2023/05/01 07:06:07;;;;;;;16.63;9.00;;;7.60;99.90;;;;;;4200628;28;20446;-76
2023/05/01 07:08:10;;;;;;;14.43;8.23;;;7.60;99.90;;;;;;4200475;28;21002;-77
2023/05/01 07:10:11;;;;;;;14.63;8.50;;;7.70;99.90;;;;;;4206946;28;20558;-76
2023/05/01 07:12:13;;;;;;;15.80;8.40;;;7.80;99.90;;;;;;4211291;28;20486;-76
2023/05/01 07:14:16;;;;;;;15.53;8.10;;;7.90;99.90;;;;;;4205075;28;20483;-77
2023/05/01 07:16:17;;;;;;;18.53;8.73;;;8.00;99.90;;;;;;4205214;28;20887;-73
2023/05/01 07:18:21;;;;;;;13.93;8.03;;;8.10;99.90;;;;;;4205368;28;20562;-71
2023/05/01 07:20:23;;;;;;;14.90;8.70;;;8.30;99.90;;;;;;4206115;28;20455;-73
2023/05/01 07:22:25;;;;;;;17.67;8.87;;;8.30;99.90;;;;;;4203429;28;20569;-72
2023/05/01 07:24:29;;;;;;;15.70;8.37;;;8.40;99.90;;;;;;4208149;28;20229;-72
2023/05/01 07:26:31;;;;;;;16.03;8.73;;;8.50;99.90;;;;;;4205878;28;20236;-71
2023/05/01 07:28:33;;;;;;;14.93;7.83;;;8.60;99.90;;;;;;4206831;28;20490;-71
2023/05/01 07:30:36;;;;;;;13.07;6.73;;;8.60;99.90;;;;;;4207837;28;20209;-73
2023/05/01 07:32:38;;;;;;;14.63;7.37;;;8.70;99.90;;;;;;4205048;28;20237;-72
2023/05/01 07:34:41;;;;;;;13.80;7.77;;;8.80;99.90;;;;;;4208906;28;20835;-73
2023/05/01 07:36:43;;;;;;;16.17;8.50;;;8.90;99.90;;;;;;4210558;28;20554;-73
2023/05/01 07:38:45;;;;;;;15.73;8.83;;;9.00;99.90;;;;;;4207336;28;20205;-72
2023/05/01 07:40:47;;;;;;;17.50;8.10;;;9.10;99.90;;;;;;4206928;28;20266;-73
2023/05/01 07:42:49;;;;;;;20.27;8.87;;;9.20;99.90;;;;;;4206469;28;20234;-75
2023/05/01 07:44:51;;;;;;;17.27;8.70;;;9.40;99.90;;;;;;4206375;28;20238;-75
2023/05/01 07:46:53;;;;;;;19.10;9.70;;;9.50;99.90;;;;;;4206549;28;20217;-78
2023/05/01 07:48:55;;;;;;;14.53;7.57;;;9.50;99.90;;;;;;4214603;28;20660;-79
2023/05/01 07:51:02;;;;;;;14.77;8.17;;;9.60;99.90;;;;;;4211049;28;20215;-80
2023/05/01 07:53:04;;;;;;;17.10;8.37;;;9.60;99.90;;;;;;4212930;28;20284;-76
2023/05/01 07:55:07;;;;;;;17.87;7.63;;;9.70;99.90;;;;;;4209545;28;20607;-76
2023/05/01 07:57:09;;;;;;;15.27;7.37;;;9.70;99.90;;;;;;4206154;28;20657;-74
2023/05/01 07:59:11;;;;;;;16.73;7.20;;;9.80;99.90;;;;;;4211967;28;20203;-75
2023/05/01 08:01:13;;;;;;;18.47;7.97;;;9.80;99.90;;;;;;4215795;28;20212;-74
2023/05/01 08:03:15;;;;;;;13.60;8.23;;;9.90;99.90;;;;;;4209890;28;20242;-75
2023/05/01 08:05:17;;;;;;;16.03;8.63;;;9.90;99.90;;;;;;4208945;28;20214;-75
2023/05/01 08:07:20;;;;;;;14.73;8.00;;;10.00;99.90;;;;;;4213094;28;20217;-72
2023/05/01 08:09:22;;;;;;;18.07;8.40;;;10.00;99.90;;;;;;4209494;28;20207;-74
2023/05/01 08:11:25;;;;;;;17.17;9.00;;;10.10;99.90;;;;;;4212206;28;20294;-79
2023/05/01 08:13:27;;;;;;;20.07;9.20;;;10.10;99.90;;;;;;4214691;28;20559;-76
2023/05/01 08:15:29;;;;;;;17.80;8.50;;;10.20;99.90;;;;;;4214294;28;20723;-73
2023/05/01 08:17:31;;;;;;;20.30;9.40;;;10.20;99.90;;;;;;4210068;28;20223;-73
2023/05/01 08:19:33;;;;;;;20.37;8.60;;;10.30;99.90;;;;;;4208288;28;20214;-73
2023/05/01 08:21:36;;;;;;;17.33;8.30;;;10.40;99.90;;;;;;4212315;28;20238;-74
2023/05/01 08:23:39;;;;;;;17.33;8.10;;;10.50;99.90;;;;;;4208864;28;20242;-75
2023/05/01 08:25:41;;;;;;;15.90;8.30;;;10.50;99.90;;;;;;4209806;28;20199;-74
2023/05/01 08:27:43;;;;;;;16.90;7.43;;;10.60;99.90;;;;;;4214883;28;20222;-74
2023/05/01 08:29:45;;;;;;;16.57;7.80;;;10.70;99.90;;;;;;4210559;28;20206;-73
2023/05/01 08:31:47;;;;;;;17.83;7.67;;;10.70;99.90;;;;;;4210771;28;20251;-73
2023/05/01 08:33:49;;;;;;;12.73;7.47;;;10.80;99.90;;;;;;4212068;28;20588;-73
2023/05/01 08:35:52;;;;;;;14.03;7.23;;;10.80;99.90;;;;;;4208820;28;20575;-72
2023/05/01 08:37:54;;;;;;;11.80;7.03;;;10.90;99.90;;;;;;4208583;28;20656;-73
2023/05/01 08:39:57;;;;;;;13.23;6.73;;;11.00;99.90;;;;;;4207769;28;20241;-77
2023/05/01 08:41:59;;;;;;;15.50;7.33;;;11.10;99.90;;;;;;4211447;28;20307;-74
2023/05/01 08:44:02;;;;;;;17.53;7.23;;;11.10;99.90;;;;;;4209828;28;20264;-75
2023/05/01 08:46:08;;;;;;;15.97;7.00;;;11.20;99.90;;;;;;4211526;28;20242;-80
2023/05/01 08:48:12;;;;;;;13.70;7.80;;;11.30;99.90;;;;;;4216144;28;20276;-77
2023/05/01 08:50:16;;;;;;;15.30;7.73;;;11.50;99.90;;;;;;4209880;28;20245;-74
2023/05/01 08:52:20;;;;;;;17.40;8.60;;;11.60;99.90;;;;;;4211761;28;20259;-74
2023/05/01 08:54:23;;;;;;;18.50;8.40;;;11.70;99.90;;;;;;4208555;28;20208;-77
2023/05/01 08:56:26;;;;;;;16.33;7.70;;;11.80;99.90;;;;;;4211366;28;20208;-75
2023/05/01 08:58:30;;;;;;;14.37;8.33;;;11.80;99.90;;;;;;4211049;28;20228;-74
2023/05/01 09:00:35;;;;;;;22.10;8.17;;;11.90;99.90;;;;;;4210290;28;20900;-78
2023/05/01 09:02:39;;;;;;;16.63;8.07;;;12.00;99.90;;;;;;4210394;28;20237;-75
2023/05/01 09:04:41;;;;;;;15.77;7.70;;;12.20;99.90;;;;;;4206107;28;21741;-73
2023/05/01 09:06:44;;;;;;;16.27;7.73;;;12.20;99.90;;;;;;4208817;28;20218;-73
2023/05/01 09:08:46;;;;;;;14.27;7.87;;;12.30;99.90;;;;;;4212452;28;20208;-74
2023/05/01 09:10:52;;;;;;;13.67;6.57;;;12.40;99.90;;;;;;4210606;28;20312;-73
2023/05/01 09:12:57;;;;;;;11.90;6.23;;;12.50;99.90;;;;;;4208431;28;20240;-73
2023/05/01 09:14:59;;;;;;;12.43;6.80;;;12.60;99.90;;;;;;4210264;28;20205;-73
2023/05/01 09:17:01;;;;;;;15.13;6.83;;;12.70;99.90;;;;;;4206189;28;20206;-73
2023/05/01 09:19:03;;;;;;;13.70;6.97;;;12.80;99.90;;;;;;4210722;28;21103;-73
2023/05/01 09:21:06;;;;;;;13.33;7.37;;;12.80;99.90;;;;;;4211396;28;20212;-72
2023/05/01 09:23:08;;;;;;;12.73;6.57;;;13.00;99.90;;;;;;4208631;28;20706;-71
2023/05/01 09:25:10;;;;;;;12.50;6.33;;;13.10;99.90;;;;;;4211043;28;20218;-73
2023/05/01 09:27:13;;;;;;;12.97;6.30;;;13.20;99.90;;;;;;4210182;28;20667;-73
2023/05/01 09:29:38;;;;;;;13.73;6.90;;;13.20;99.90;;;;;;4207030;28;20210;-73
2023/05/01 09:31:39;;;;;;;11.97;6.87;;;13.40;99.90;;;;;;4209603;28;20719;-72
2023/05/01 09:33:52;;;;;;;12.47;6.63;;;13.50;99.90;;;;;;4204606;28;20210;-73
2023/05/01 09:35:56;;;;;;;19.77;7.00;;;13.60;99.90;;;;;;4212588;28;20274;-73
2023/05/01 09:37:58;;;;;;;11.87;6.20;;;13.70;99.90;;;;;;4207583;28;20632;-72
2023/05/01 09:40:07;;;;;;;12.97;6.10;;;13.90;99.90;;;;;;4208436;28;20308;-73
2023/05/01 09:42:09;;;;;;;9.90;5.40;;;14.00;99.90;;;;;;4208740;28;20224;-73
2023/05/01 09:44:18;;;;;;;10.77;5.50;;;14.10;99.90;;;;;;4209439;28;21010;-73
2023/05/01 09:46:23;;;;;;;12.07;6.60;;;14.30;99.90;;;;;;4209775;28;20273;-73
2023/05/01 09:48:25;;;;;;;15.77;6.33;;;14.40;99.90;;;;;;4207519;28;20212;-73
2023/05/01 09:50:31;;;;;;;11.83;6.30;;;14.60;99.90;;;;;;4214120;28;20244;-73
2023/05/01 09:52:33;;;;;;;15.37;6.63;;;14.70;99.90;;;;;;4208810;28;20286;-73
2023/05/01 09:54:35;;;;;;;15.67;6.77;;;14.90;99.90;;;;;;4210432;28;20208;-73
2023/05/01 09:56:47;;;;;;;13.23;6.07;;;15.00;99.90;;;;;;4210626;28;20248;-71
2023/05/01 09:58:51;;;;;;;12.77;6.63;;;15.10;99.90;;;;;;4206781;28;20225;-75
2023/05/01 10:00:52;;;;;;;10.83;6.37;;;15.30;96.10;;;;;;4205923;28;20205;-75
2023/05/01 10:02:56;;;;;;;11.63;6.43;;;15.40;88.90;;;;;;4210224;28;21028;-77
2023/05/01 10:04:59;;;;;;;9.77;5.37;;;15.50;94.40;;;;;;4209374;28;20236;-76
2023/05/01 10:07:13;;;;;;;15.57;6.37;;;15.50;94.80;;;;;;4207866;28;20903;-76
2023/05/01 10:09:27;;;;;;;13.80;6.53;;;15.60;77.80;;;;;;4209991;28;20216;-76
2023/05/01 10:11:29;;;;;;;11.63;6.83;;;15.70;78.40;;;;;;4204837;28;20995;-75
2023/05/01 10:13:31;;;;;;;12.93;6.23;;;15.80;75.20;;;;;;4208653;28;20419;-76
2023/05/01 10:15:37;;;;;;;14.50;6.30;;;15.90;76.10;;;;;;4214294;28;20209;-76
2023/05/01 10:17:40;;;;;;;10.73;6.07;;;15.90;83.20;;;;;;4211962;28;20216;-75
2023/05/01 10:19:43;;;;;;;12.70;6.00;;;16.00;75.20;;;;;;4213845;28;20275;-75
2023/05/01 10:21:45;;;;;;;10.27;5.83;;;16.10;63.90;;;;;;4205109;28;20248;-75
2023/05/01 10:23:47;;;;;;;9.17;4.93;;;16.20;60.20;;;;;;4210669;28;20204;-78
2023/05/01 10:25:52;;;;;;;11.10;4.60;;;16.30;64.00;;;;;;4210621;28;20211;-81
2023/05/01 10:27:56;;;;;;;11.77;5.20;;;16.40;68.80;;;;;;4210903;28;20301;-73
2023/05/01 10:30:03;;;;;;;10.67;5.43;;;16.50;68.80;;;;;;4207998;28;20214;-70
2023/05/01 10:32:06;;;;;;;11.60;5.17;;;16.60;70.20;;;;;;4207900;28;20317;-73
2023/05/01 10:34:09;;;;;;;11.13;5.57;;;16.70;61.90;;;;;;4206048;28;20242;-69
2023/05/01 10:36:18;;;;;;;11.30;5.53;;;16.80;59.10;;;;;;4203860;28;20966;-72
2023/05/01 10:38:26;;;;;;;10.57;5.13;;;16.90;56.00;;;;;;4208077;28;20625;-72
2023/05/01 10:40:45;;;;;;;10.63;4.97;;;17.00;64.90;;;;;;4203711;28;20241;-70
2023/05/01 10:43:14;;;;;;;11.67;4.67;;;17.20;61.00;;;;;;4204449;28;20234;-70
2023/05/01 10:45:29;;;;;;;8.80;4.57;;;17.30;56.10;;;;;;4209699;28;20693;-72